Time;durP1;ratioP1;P1;durP2;ratioP2;P2;SDS_P1;SDS_P2;PMS_P1;PMS_P2;Temp;Humidity;BMP_temperature;BMP_pressure;BME280_temperature;BME280_humidity;BME280_pressure;Samples;Min_cycle;Max_cycle;Signal;HPM_P1;HPM_P2
2021/07/09 00:02:52;;;;;;;0.30;0.30;;;;;;;18.28;54.46;98406.41;5011926;28;20116;-60
2021/07/09 00:05:17;;;;;;;1.75;0.77;;;;;;;18.34;54.36;98406.06;5011707;28;20100;-61
2021/07/09 00:07:43;;;;;;;2.65;0.57;;;;;;;18.41;54.33;98402.09;5011689;28;20467;-60
2021/07/09 00:10:09;;;;;;;1.13;1.08;;;;;;;18.47;54.24;98401.72;5011550;28;20034;-60
2021/07/09 00:12:35;;;;;;;0.90;0.88;;;;;;;18.55;54.15;98412.19;5011821;28;20507;-62
2021/07/09 00:15:01;;;;;;;0.30;0.30;;;;;;;18.64;54.04;98405.94;5011941;28;20034;-61
2021/07/09 00:17:26;;;;;;;2.58;1.30;;;;;;;18.71;54.19;98404.47;5011686;28;20030;-62
2021/07/09 00:19:52;;;;;;;0.75;0.75;;;;;;;18.80;54.10;98404.66;5104659;28;20407;-60
2021/07/09 00:22:18;;;;;;;0.50;0.50;;;;;;;18.90;53.82;98407.31;5113782;28;20038;-61
2021/07/09 00:24:44;;;;;;;3.00;1.02;;;;;;;19.02;53.64;98403.25;5113567;28;20035;-61
2021/07/09 00:27:10;;;;;;;0.70;0.70;;;;;;;19.13;53.54;98404.75;5114121;28;20038;-60
2021/07/09 00:29:36;;;;;;;0.75;0.75;;;;;;;19.28;53.18;98402.88;5114363;28;20039;-61
2021/07/09 00:32:02;;;;;;;0.65;0.65;;;;;;;19.44;53.01;98407.06;5095278;28;20034;-61
2021/07/09 00:34:27;;;;;;;1.55;1.33;;;;;;;19.60;52.89;98411.22;5113295;28;20047;-61
2021/07/09 00:36:53;;;;;;;0.63;0.63;;;;;;;19.78;52.50;98405.97;5095524;28;20058;-62
2021/07/09 00:39:19;;;;;;;2.20;0.85;;;;;;;20.00;52.35;98404.47;5113498;28;20042;-63
2021/07/09 00:41:45;;;;;;;0.68;0.68;;;;;;;20.44;51.34;98403.88;5113829;28;20382;-60
2021/07/09 00:44:11;;;;;;;2.20;0.65;;;;;;;22.01;48.18;98398.84;5113559;28;20031;-60
2021/07/09 00:46:41;;;;;;;0.50;0.30;;;;;;;23.87;44.66;98396.09;5113767;28;20080;-62
2021/07/09 00:49:09;;;;;;;0.88;0.28;;;;;;;25.88;41.27;98392.03;5112585;28;20042;-63
2021/07/09 00:51:35;;;;;;;0.82;0.82;;;;;;;27.82;38.54;98385.38;5113103;28;20051;-60
2021/07/09 00:54:01;;;;;;;1.35;1.10;;;;;;;29.36;37.05;98389.25;5113959;28;20030;-59
2021/07/09 00:56:27;;;;;;;1.27;1.17;;;;;;;30.60;35.69;98381.91;5113265;28;20044;-61
2021/07/09 00:58:54;;;;;;;0.30;0.30;;;;;;;31.66;34.57;98380.22;5113053;28;20469;-62
2021/07/09 01:01:21;;;;;;;0.35;0.35;;;;;;;32.61;33.83;98382.81;5113019;28;20038;-62
2021/07/09 01:03:47;;;;;;;1.15;0.30;;;;;;;33.44;33.01;98380.56;5113507;28;20039;-60
2021/07/09 01:06:15;;;;;;;0.40;0.35;;;;;;;34.10;33.05;98374.69;5112889;28;20032;-60
2021/07/09 01:08:42;;;;;;;0.52;0.47;;;;;;;34.65;32.72;98372.72;5113032;28;20072;-61
2021/07/09 01:11:09;;;;;;;0.28;0.28;;;;;;;35.05;32.35;98370.66;5113407;28;20072;-61
2021/07/09 01:13:35;;;;;;;0.17;0.17;;;;;;;35.47;32.56;98380.34;5094777;28;20038;-61
2021/07/09 01:16:01;;;;;;;0.17;0.10;;;;;;;35.92;32.08;98377.69;5094436;28;20042;-61
2021/07/09 01:18:27;;;;;;;0.70;0.70;;;;;;;36.39;31.57;98385.19;5112972;28;20515;-61
2021/07/09 01:20:53;;;;;;;0.35;0.35;;;;;;;36.83;31.31;98380.78;5113530;28;20059;-61
2021/07/09 01:23:22;;;;;;;0.22;0.22;;;;;;;37.32;30.73;98370.06;5113172;28;20027;-62
2021/07/09 01:25:48;;;;;;;1.95;0.52;;;;;;;37.81;30.81;98377.66;5113001;28;20080;-61
2021/07/09 01:28:14;;;;;;;0.70;0.63;;;;;;;38.16;30.40;98378.41;5112948;28;20031;-61
2021/07/09 01:30:40;;;;;;;0.17;0.17;;;;;;;38.54;30.08;98381.09;5113078;28;20473;-60
2021/07/09 01:33:05;;;;;;;2.33;0.30;;;;;;;38.79;30.26;98385.63;5112770;28;20046;-61
2021/07/09 01:35:32;;;;;;;1.10;0.63;;;;;;;38.88;30.33;98374.41;5113064;28;20031;-62
2021/07/09 01:38:02;;;;;;;0.68;0.65;;;;;;;39.15;29.73;98371.47;5113000;28;20034;-61
2021/07/09 01:40:29;;;;;;;0.57;0.32;;;;;;;39.36;29.54;98373.09;5112336;28;20126;-61
2021/07/09 01:42:55;;;;;;;0.20;0.20;;;;;;;39.61;29.55;98383.31;5094452;28;20035;-61
2021/07/09 01:45:22;;;;;;;0.40;0.40;;;;;;;39.81;29.42;98373.84;5094512;28;20542;-61
2021/07/09 01:47:49;;;;;;;0.73;0.73;;;;;;;40.04;29.24;98373.75;5094316;28;20035;-62
2021/07/09 01:50:16;;;;;;;0.22;0.22;;;;;;;40.42;28.70;98367.50;5112772;28;20035;-61
2021/07/09 01:52:42;;;;;;;0.32;0.32;;;;;;;40.86;28.28;98378.78;5113133;28;20028;-59
2021/07/09 01:55:09;;;;;;;1.83;0.73;;;;;;;41.24;27.80;98369.53;5113218;28;20035;-61
2021/07/09 01:57:35;;;;;;;0.32;0.32;;;;;;;41.61;27.42;98375.91;5112934;28;20077;-61
2021/07/09 02:00:08;;;;;;;1.00;0.82;;;;;;;41.94;27.20;98370.00;5112435;28;20027;-62
2021/07/09 02:02:33;;;;;;;0.63;0.50;;;;;;;42.23;26.88;98386.44;5098052;28;20437;-65
2021/07/09 02:04:59;;;;;;;1.67;0.57;;;;;;;42.62;26.76;98375.69;5116886;28;20115;-63
2021/07/09 02:07:25;;;;;;;0.40;0.40;;;;;;;42.15;27.01;98374.28;5116202;28;20032;-61
2021/07/09 02:09:54;;;;;;;1.58;1.48;;;;;;;39.54;30.34;98374.81;5116277;28;20036;-62
2021/07/09 02:12:23;;;;;;;0.93;0.43;;;;;;;36.84;33.55;98365.25;5116397;28;20031;-62
2021/07/09 02:14:50;;;;;;;0.85;0.77;;;;;;;34.90;36.32;98367.84;5116394;28;20066;-68
2021/07/09 02:17:18;;;;;;;0.95;0.70;;;;;;;33.82;37.60;98370.56;5116009;28;20078;-62
2021/07/09 02:19:44;;;;;;;0.30;0.30;;;;;;;34.50;36.03;98369.06;5116533;28;20028;-62
2021/07/09 02:22:13;;;;;;;0.20;0.20;;;;;;;36.62;32.20;98359.69;5116493;28;20051;-60
2021/07/09 02:24:41;;;;;;;0.40;0.40;;;;;;;38.34;29.75;98363.81;5116211;28;20032;-61
2021/07/09 02:27:07;;;;;;;0.63;0.50;;;;;;;39.62;27.99;98361.13;5115747;28;20032;-61
2021/07/09 02:29:34;;;;;;;0.57;0.57;;;;;;;40.54;26.72;98354.50;5116450;28;20110;-62
2021/07/09 02:32:01;;;;;;;0.77;0.60;;;;;;;40.28;27.00;98356.34;5097489;28;20032;-62
2021/07/09 02:34:28;;;;;;;0.20;0.20;;;;;;;40.50;26.80;98362.41;5115451;28;20044;-62
2021/07/09 02:36:55;;;;;;;0.80;0.77;;;;;;;40.35;26.90;98361.13;5116539;28;20424;-62
2021/07/09 02:39:22;;;;;;;0.30;0.30;;;;;;;38.95;28.64;98368.53;5115618;28;20035;-62
2021/07/09 02:41:48;;;;;;;0.38;0.30;;;;;;;37.72;29.94;98361.00;5115323;28;20118;-62
2021/07/09 02:44:14;;;;;;;0.38;0.35;;;;;;;37.04;31.09;98356.03;5097412;28;20031;-61
2021/07/09 02:46:40;;;;;;;1.50;0.32;;;;;;;36.07;32.00;98349.06;5116048;28;20034;-62
2021/07/09 02:49:06;;;;;;;0.57;0.43;;;;;;;37.42;29.49;98353.19;5115351;28;20157;-62
2021/07/09 02:51:31;;;;;;;0.20;0.20;;;;;;;39.25;27.33;98350.34;5115467;28;20027;-62
2021/07/09 02:53:57;;;;;;;0.10;0.10;;;;;;;40.79;25.49;98350.19;5115770;28;20119;-62
2021/07/09 02:56:23;;;;;;;0.45;0.30;;;;;;;42.02;24.23;98345.44;5116028;28;20132;-63
2021/07/09 02:58:49;;;;;;;0.10;0.10;;;;;;;43.04;23.56;98348.72;5115017;28;20439;-63
2021/07/09 03:01:14;;;;;;;0.20;0.20;;;;;;;43.18;23.59;98347.38;5115095;28;20504;-62
2021/07/09 03:03:41;;;;;;;0.20;0.20;;;;;;;43.57;23.02;98343.03;5115194;28;20023;-61
2021/07/09 03:06:07;;;;;;;0.63;0.63;;;;;;;43.79;22.87;98338.50;5114888;28;20043;-61
2021/07/09 03:08:33;;;;;;;1.00;0.50;;;;;;;44.15;22.32;98340.78;5114921;28;20028;-63
2021/07/09 03:10:59;;;;;;;0.30;0.30;;;;;;;44.54;22.55;98340.44;5115718;28;20039;-61
2021/07/09 03:13:26;;;;;;;0.55;0.55;;;;;;;44.32;22.62;98340.56;5114507;28;20019;-61
2021/07/09 03:15:52;;;;;;;0.10;0.10;;;;;;;43.88;23.18;98341.50;5115096;28;20488;-61
2021/07/09 03:18:18;;;;;;;0.22;0.22;;;;;;;44.02;22.98;98335.09;5115544;28;20031;-61
2021/07/09 03:20:44;;;;;;;0.20;0.20;;;;;;;44.11;22.88;98340.13;5116547;28;20028;-62
2021/07/09 03:23:10;;;;;;;0.20;0.20;;;;;;;44.22;22.42;98331.03;5115341;28;20477;-61
2021/07/09 03:25:36;;;;;;;0.20;0.20;;;;;;;44.64;22.03;98341.31;5114752;28;20059;-61
2021/07/09 03:28:02;;;;;;;0.20;0.20;;;;;;;44.93;21.91;98330.09;5115446;28;20059;-61
2021/07/09 03:30:28;;;;;;;0.20;0.20;;;;;;;45.23;21.80;98335.44;5114916;28;20118;-60
2021/07/09 03:32:53;;;;;;;0.25;0.25;;;;;;;45.64;21.22;98333.94;5114905;28;20052;-61
2021/07/09 03:35:19;;;;;;;0.10;0.10;;;;;;;45.62;21.13;98329.94;5114688;28;20119;-61
2021/07/09 03:37:45;;;;;;;0.30;0.30;;;;;;;45.38;21.86;98321.91;5115314;28;20063;-61
2021/07/09 03:40:11;;;;;;;0.10;0.10;;;;;;;46.04;20.75;98311.75;5114888;28;20028;-62
2021/07/09 03:42:37;;;;;;;0.47;0.40;;;;;;;46.50;20.58;98313.66;5096037;28;20184;-62
2021/07/09 03:45:05;;;;;;;0.73;0.60;;;;;;;46.78;20.77;98301.84;5114773;28;20028;-62
2021/07/09 03:47:30;;;;;;;0.45;0.35;;;;;;;47.27;20.13;98317.16;5095780;28;20063;-63
2021/07/09 03:49:56;;;;;;;0.10;0.10;;;;;;;47.65;19.91;98322.09;5114367;28;20532;-63
2021/07/09 03:52:22;;;;;;;0.25;0.25;;;;;;;47.94;19.57;98314.66;5114504;28;20562;-62
2021/07/09 03:54:48;;;;;;;0.10;0.10;;;;;;;48.22;19.61;98311.44;5114833;28;20193;-61
2021/07/09 03:57:13;;;;;;;0.30;0.30;;;;;;;48.22;19.54;98306.44;5114369;28;20111;-62
2021/07/09 03:59:39;;;;;;;0.20;0.20;;;;;;;48.36;19.43;98316.41;5113965;28;20051;-61
2021/07/09 04:02:05;;;;;;;0.30;0.30;;;;;;;48.59;19.35;98316.75;5095715;28;20047;-63
2021/07/09 04:04:31;;;;;;;0.28;0.28;;;;;;;48.86;19.13;98324.28;5114268;28;20028;-62
2021/07/09 04:06:57;;;;;;;0.20;0.20;;;;;;;49.06;18.79;98314.75;5114218;28;20031;-62
2021/07/09 04:09:23;;;;;;;0.38;0.30;;;;;;;49.27;18.81;98300.94;5113776;28;20024;-60
2021/07/09 04:11:48;;;;;;;11.27;0.47;;;;;;;49.56;18.61;98298.34;5114591;28;20070;-61
2021/07/09 04:14:14;;;;;;;0.30;0.30;;;;;;;49.84;18.59;98304.41;5114152;28;20496;-62
2021/07/09 04:16:40;;;;;;;0.20;0.20;;;;;;;49.79;18.64;98300.13;5113407;28;20027;-62
2021/07/09 04:19:06;;;;;;;0.20;0.20;;;;;;;49.76;18.40;98300.38;5113913;28;20023;-61
2021/07/09 04:21:31;;;;;;;0.22;0.22;;;;;;;49.73;18.48;98293.47;5113472;28;20031;-61
2021/07/09 04:23:57;;;;;;;0.40;0.40;;;;;;;49.92;18.31;98290.97;5113433;28;20024;-63
2021/07/09 04:26:23;;;;;;;0.30;0.30;;;;;;;50.17;18.05;98293.53;5113737;28;20034;-61
2021/07/09 04:28:49;;;;;;;0.30;0.30;;;;;;;50.26;17.87;98287.53;5114329;28;20114;-62
2021/07/09 04:31:14;;;;;;;0.55;0.52;;;;;;;49.73;18.57;98286.81;5113840;28;20057;-62
2021/07/09 04:33:43;;;;;;;0.52;0.52;;;;;;;49.08;19.15;98288.00;5113081;28;20051;-63
2021/07/09 04:36:09;;;;;;;0.75;0.75;;;;;;;48.62;19.40;98277.91;5113437;28;20023;-62
2021/07/09 04:38:35;;;;;;;0.30;0.30;;;;;;;48.88;19.01;98277.94;5095128;28;20039;-61
2021/07/09 04:41:01;;;;;;;0.40;0.40;;;;;;;49.01;18.79;98280.50;5094699;28;20088;-62
2021/07/09 04:43:26;;;;;;;1.38;0.50;;;;;;;48.75;18.90;98272.50;5113260;28;20031;-63
2021/07/09 04:45:52;;;;;;;0.30;0.30;;;;;;;48.76;18.92;98265.34;5113085;28;20027;-61
2021/07/09 04:48:19;;;;;;;0.30;0.30;;;;;;;48.72;18.92;98270.59;5111233;28;20024;-61
2021/07/09 04:50:45;;;;;;;0.73;0.73;;;;;;;48.89;18.62;98267.13;5111091;28;20118;-63
2021/07/09 04:53:10;;;;;;;0.45;0.45;;;;;;;48.88;18.62;98268.41;5111900;28;20030;-65
2021/07/09 04:55:37;;;;;;;0.35;0.35;;;;;;;49.34;18.17;98253.06;5110955;28;20063;-62
2021/07/09 04:58:03;;;;;;;0.57;0.57;;;;;;;49.82;17.62;98259.56;5089945;28;20024;-62
2021/07/09 05:00:29;;;;;;;0.28;0.28;;;;;;;49.80;17.77;98263.81;5111298;28;20032;-61
2021/07/09 05:02:58;;;;;;;1.23;0.30;;;;;;;49.78;17.66;98254.78;5111326;28;20076;-62
2021/07/09 05:05:24;;;;;;;1.25;0.75;;;;;;;49.77;17.86;98255.31;5111442;28;20031;-60
2021/07/09 05:07:53;;;;;;;1.20;1.08;;;;;;;49.87;17.53;98242.13;5092849;28;20023;-61
2021/07/09 05:10:19;;;;;;;0.50;0.35;;;;;;;49.94;17.67;98264.19;5112262;28;20028;-62
2021/07/09 05:12:45;;;;;;;0.63;0.47;;;;;;;49.87;17.86;98250.06;5111164;28;20043;-62
2021/07/09 05:15:12;;;;;;;1.02;0.75;;;;;;;49.20;18.14;98251.84;5108475;28;20059;-62
2021/07/09 05:17:38;;;;;;;0.70;0.70;;;;;;;48.95;18.25;98250.50;5111048;28;20527;-62
2021/07/09 05:20:05;;;;;;;0.60;0.60;;;;;;;48.93;18.27;98248.09;5093342;28;20024;-63
2021/07/09 05:22:31;;;;;;;0.85;0.80;;;;;;;49.26;17.94;98249.78;5092707;28;20428;-62
2021/07/09 05:24:57;;;;;;;0.50;0.50;;;;;;;49.57;17.66;98256.19;5111188;28;20031;-63
2021/07/09 05:27:26;;;;;;;1.55;0.38;;;;;;;49.57;17.63;98242.41;5112319;28;20054;-62
2021/07/09 05:29:52;;;;;;;0.30;0.30;;;;;;;49.32;17.75;98249.03;5108086;28;20031;-62
2021/07/09 05:32:23;;;;;;;0.75;0.45;;;;;;;49.18;17.74;98233.22;5110469;28;20400;-62
2021/07/09 05:34:54;;;;;;;0.40;0.38;;;;;;;49.50;17.30;98236.22;5088852;28;20084;-60
2021/07/09 05:37:21;;;;;;;0.20;0.20;;;;;;;49.79;17.08;98235.16;5112723;28;20594;-61
2021/07/09 05:39:47;;;;;;;0.75;0.60;;;;;;;50.00;16.79;98232.13;5110760;28;20031;-62
2021/07/09 05:42:14;;;;;;;1.80;0.80;;;;;;;50.19;16.89;98239.16;5110565;28;20023;-60
2021/07/09 05:44:41;;;;;;;0.98;0.50;;;;;;;50.14;16.88;98234.88;5114395;28;20039;-61
2021/07/09 05:47:07;;;;;;;1.95;0.82;;;;;;;49.72;17.09;98238.53;5109903;28;20039;-61
2021/07/09 05:49:34;;;;;;;0.75;0.75;;;;;;;49.56;17.35;98237.09;5112663;28;20127;-64
2021/07/09 05:52:00;;;;;;;0.40;0.40;;;;;;;49.40;17.32;98239.31;5113253;28;20035;-63
2021/07/09 05:54:25;;;;;;;0.70;0.63;;;;;;;49.16;17.49;98232.97;5113821;28;20385;-61
2021/07/09 05:56:51;;;;;;;0.32;0.32;;;;;;;48.39;18.04;98236.00;5095816;28;20106;-63
2021/07/09 05:59:17;;;;;;;0.68;0.63;;;;;;;46.43;19.62;98219.03;5113228;28;20442;-62
2021/07/09 06:01:43;;;;;;;1.55;1.45;;;;;;;43.82;21.80;98236.34;5114233;28;20031;-61
2021/07/09 06:04:09;;;;;;;1.35;0.40;;;;;;;41.32;23.89;98224.06;5112536;28;20130;-65
2021/07/09 06:06:35;;;;;;;0.40;0.40;;;;;;;39.46;25.38;98230.53;5113258;28;20088;-59
2021/07/09 06:09:01;;;;;;;0.47;0.47;;;;;;;38.22;26.32;98224.75;5112003;28;20036;-63
2021/07/09 06:11:27;;;;;;;2.22;0.60;;;;;;;37.35;26.47;98216.66;5077743;28;20039;-63
2021/07/09 06:13:53;;;;;;;1.75;0.63;;;;;;;36.56;27.02;98209.81;5113460;28;20412;-61
2021/07/09 06:16:19;;;;;;;1.80;0.93;;;;;;;35.88;27.07;98204.72;5113382;28;20542;-61
2021/07/09 06:18:45;;;;;;;0.50;0.50;;;;;;;34.97;27.81;98215.84;5113490;28;20024;-61
2021/07/09 06:21:11;;;;;;;0.20;0.20;;;;;;;34.32;28.03;98216.00;5112826;28;20416;-61
2021/07/09 06:23:36;;;;;;;1.77;1.13;;;;;;;33.96;28.02;98215.19;5113554;28;20409;-61
2021/07/09 06:26:02;;;;;;;0.57;0.57;;;;;;;33.69;28.30;98207.00;5094730;28;20024;-62
2021/07/09 06:28:28;;;;;;;0.43;0.43;;;;;;;33.39;28.34;98207.34;5094556;28;20023;-64
2021/07/09 06:30:54;;;;;;;0.30;0.30;;;;;;;33.04;28.18;98208.84;5113142;28;20050;-61
2021/07/09 06:33:20;;;;;;;0.15;0.15;;;;;;;32.63;28.38;98209.88;5112669;28;20524;-62
2021/07/09 06:35:46;;;;;;;6.55;1.33;;;;;;;32.16;28.55;98200.25;5113905;28;20030;-61
2021/07/09 06:38:12;;;;;;;0.20;0.20;;;;;;;31.83;28.59;98197.09;5111884;28;20027;-62
2021/07/09 06:40:38;;;;;;;0.73;0.63;;;;;;;31.70;28.10;98198.63;5076478;28;20024;-60
2021/07/09 06:43:04;;;;;;;0.55;0.38;;;;;;;31.60;28.23;98200.16;5112066;28;20405;-61
2021/07/09 06:45:30;;;;;;;0.10;0.10;;;;;;;31.42;28.20;98195.09;5109880;28;20020;-63
2021/07/09 06:47:56;;;;;;;0.63;0.63;;;;;;;31.12;28.40;98202.88;5110056;28;20039;-61
2021/07/09 06:50:22;;;;;;;0.22;0.22;;;;;;;30.92;28.06;98201.00;5110718;28;20023;-62
2021/07/09 06:52:48;;;;;;;0.30;0.20;;;;;;;30.68;28.46;98196.66;5093132;28;20054;-60
2021/07/09 06:55:18;;;;;;;0.20;0.20;;;;;;;30.44;28.25;98191.47;5112102;28;20027;-63
2021/07/09 06:57:47;;;;;;;0.20;0.20;;;;;;;30.25;28.48;98198.84;5108716;28;20070;-60
2021/07/09 07:00:15;;;;;;;0.20;0.20;;;;;;;30.13;28.48;98187.75;5112825;28;20513;-61
2021/07/09 07:02:41;;;;;;;0.17;0.17;;;;;;;30.06;28.41;98177.13;5111772;28;20032;-62
2021/07/09 07:05:07;;;;;;;0.20;0.20;;;;;;;30.10;28.22;98178.00;5112728;28;20401;-62
2021/07/09 07:07:33;;;;;;;1.83;0.43;;;;;;;30.16;28.15;98181.31;5112267;28;20492;-62
2021/07/09 07:09:59;;;;;;;0.22;0.22;;;;;;;30.14;28.04;98183.69;5112208;28;20030;-62
2021/07/09 07:12:26;;;;;;;0.17;0.17;;;;;;;30.10;27.99;98182.84;5112384;28;20035;-62
2021/07/09 07:14:53;;;;;;;0.22;0.22;;;;;;;30.12;27.82;98169.13;5111608;28;20032;-65
2021/07/09 07:17:20;;;;;;;0.93;0.25;;;;;;;30.14;27.91;98172.38;5111758;28;20753;-61
2021/07/09 07:19:46;;;;;;;0.73;0.73;;;;;;;30.07;28.03;98173.09;5091654;28;20156;-62
2021/07/09 07:22:12;;;;;;;0.40;0.40;;;;;;;30.02;27.87;98181.91;5108276;28;20032;-61
2021/07/09 07:24:38;;;;;;;0.17;0.17;;;;;;;29.89;27.94;98175.66;5110941;28;20463;-61
2021/07/09 07:27:05;;;;;;;0.17;0.17;;;;;;;29.79;28.13;98167.78;5111215;28;20176;-61
2021/07/09 07:29:31;;;;;;;0.20;0.20;;;;;;;29.60;28.38;98175.16;5109866;28;20123;-60
2021/07/09 07:31:58;;;;;;;0.30;0.30;;;;;;;29.51;28.38;98163.28;5110165;28;20027;-60
2021/07/09 07:34:23;;;;;;;0.20;0.20;;;;;;;29.47;28.34;98166.03;5111615;28;20067;-59
2021/07/09 07:36:49;;;;;;;0.30;0.30;;;;;;;29.48;28.28;98169.69;5109923;28;20104;-60
2021/07/09 07:39:16;;;;;;;0.22;0.13;;;;;;;29.50;28.44;98155.97;5110522;28;20031;-61
2021/07/09 07:41:42;;;;;;;0.08;0.08;;;;;;;29.49;28.25;98160.00;5109905;28;20412;-60
2021/07/09 07:44:09;;;;;;;0.20;0.20;;;;;;;29.39;28.54;98149.31;5090386;28;20016;-60
2021/07/09 07:46:35;;;;;;;0.75;0.75;;;;;;;29.38;28.29;98139.22;5108240;28;20052;-62
2021/07/09 07:49:01;;;;;;;2.70;0.40;;;;;;;29.36;28.48;98139.59;5109805;28;20024;-61
2021/07/09 07:51:28;;;;;;;0.20;0.20;;;;;;;29.33;28.43;98138.31;5111448;28;20051;-60
2021/07/09 07:53:54;;;;;;;0.88;0.43;;;;;;;29.25;28.46;98150.69;5109575;28;20042;-61
2021/07/09 07:56:21;;;;;;;0.10;0.10;;;;;;;29.13;28.87;98145.19;5109724;28;20023;-61
2021/07/09 07:58:51;;;;;;;0.10;0.10;;;;;;;29.07;29.02;98139.03;5109558;28;20145;-61
2021/07/09 08:01:17;;;;;;;0.10;0.10;;;;;;;29.10;28.83;98138.28;5109147;28;20028;-61
2021/07/09 08:03:43;;;;;;;0.40;0.28;;;;;;;29.17;28.68;98131.94;5109496;28;20035;-61
2021/07/09 08:06:09;;;;;;;0.40;0.38;;;;;;;29.18;28.55;98128.75;5108355;28;20027;-61
2021/07/09 08:08:37;;;;;;;0.05;0.05;;;;;;;29.10;28.59;98131.81;5091501;28;20037;-61
2021/07/09 08:11:05;;;;;;;0.10;0.10;;;;;;;29.02;28.89;98123.19;5109369;28;20032;-62
2021/07/09 08:13:31;;;;;;;0.20;0.20;;;;;;;28.98;29.10;98125.13;5108367;28;20486;-62
2021/07/09 08:15:57;;;;;;;0.10;0.10;;;;;;;29.01;28.84;98123.56;5110532;28;20110;-59
2021/07/09 08:18:23;;;;;;;0.13;0.13;;;;;;;29.01;28.96;98118.72;5110194;28;20393;-60
2021/07/09 08:20:49;;;;;;;0.90;0.63;;;;;;;28.97;28.82;98114.22;5092180;28;20419;-60
2021/07/09 08:23:15;;;;;;;0.10;0.10;;;;;;;28.96;29.27;98115.41;5104518;28;20081;-61
2021/07/09 08:25:41;;;;;;;0.35;0.35;;;;;;;28.96;29.03;98104.94;5107768;28;20039;-59
2021/07/09 08:28:07;;;;;;;0.10;0.10;;;;;;;28.98;29.25;98105.34;5111299;28;20035;-61
2021/07/09 08:30:33;;;;;;;0.75;0.63;;;;;;;29.00;28.94;98099.31;5104071;28;20553;-62
2021/07/09 08:32:59;;;;;;;0.22;0.22;;;;;;;29.00;29.34;98105.81;5090982;28;20048;-60
2021/07/09 08:35:24;;;;;;;2.05;0.25;;;;;;;28.99;29.36;98097.72;5107770;28;20036;-60
2021/07/09 08:37:52;;;;;;;0.28;0.20;;;;;;;28.96;29.38;98096.44;5104819;28;20425;-61
2021/07/09 08:40:18;;;;;;;0.10;0.10;;;;;;;28.95;29.19;98097.63;5107865;28;20065;-63
2021/07/09 08:42:44;;;;;;;0.63;0.63;;;;;;;28.94;29.27;98101.63;5108702;28;20027;-63
2021/07/09 08:45:14;;;;;;;0.10;0.10;;;;;;;28.95;29.15;98089.16;5110394;28;20043;-62
2021/07/09 08:47:41;;;;;;;0.88;0.17;;;;;;;28.94;29.21;98086.72;5109274;28;20085;-60
2021/07/09 08:50:10;;;;;;;0.25;0.25;;;;;;;28.97;29.39;98083.94;5110901;28;20050;-60
2021/07/09 08:52:36;;;;;;;0.32;0.20;;;;;;;29.02;29.00;98083.63;5109706;28;20035;-60
2021/07/09 08:55:05;;;;;;;0.35;0.35;;;;;;;29.06;29.27;98072.38;5109624;28;20501;-61
2021/07/09 08:57:31;;;;;;;0.35;0.35;;;;;;;29.12;29.06;98089.84;5092460;28;20036;-62
2021/07/09 08:59:57;;;;;;;0.82;0.57;;;;;;;29.08;29.31;98086.13;5110810;28;20042;-61
2021/07/09 09:02:27;;;;;;;0.40;0.30;;;;;;;29.06;29.35;98072.38;5108714;28;20030;-59
2021/07/09 09:04:55;;;;;;;0.17;0.17;;;;;;;29.10;29.34;98061.16;5109345;28;20035;-62
2021/07/09 09:07:28;;;;;;;0.50;0.50;;;;;;;29.15;29.14;98058.00;5109500;28;20566;-64
2021/07/09 09:09:54;;;;;;;0.00;0.00;;;;;;;29.17;29.21;98067.75;5108538;28;20032;-65
2021/07/09 09:12:23;;;;;;;0.10;0.10;;;;;;;29.16;29.11;98051.97;5109135;28;20546;-69
2021/07/09 09:14:51;;;;;;;0.57;0.43;;;;;;;29.18;29.52;98048.75;5109294;28;20046;-61
2021/07/09 09:17:26;;;;;;;0.65;0.43;;;;;;;29.14;29.54;98053.56;5110440;28;20480;-63
2021/07/09 09:20:11;;;;;;;0.40;0.10;;;;;;;29.08;29.47;98043.75;5110307;28;20065;-63
2021/07/09 09:22:58;;;;;;;0.22;0.22;;;;;;;29.05;29.59;98039.69;5107175;28;20028;-61
2021/07/09 09:25:30;;;;;;;0.30;0.30;;;;;;;29.10;29.56;98033.69;5096098;28;20485;-61
2021/07/09 09:28:16;;;;;;;0.30;0.30;;;;;;;29.16;29.34;98037.03;5109937;28;20031;-62
2021/07/09 09:30:43;;;;;;;0.20;0.20;;;;;;;29.22;29.30;98029.88;5107777;28;20109;-62
2021/07/09 09:33:11;;;;;;;0.22;0.22;;;;;;;29.25;29.31;98020.66;5110493;28;20547;-62
2021/07/09 09:35:42;;;;;;;0.25;0.25;;;;;;;29.30;29.37;98019.50;5110364;28;20553;-64
2021/07/09 09:38:12;;;;;;;0.32;0.32;;;;;;;29.34;29.10;98017.56;5110739;28;20038;-66
2021/07/09 09:40:40;;;;;;;0.38;0.32;;;;;;;29.40;29.12;98020.88;5089005;28;20031;-63
2021/07/09 09:43:19;;;;;;;0.20;0.20;;;;;;;29.49;29.08;98025.06;5109509;28;20031;-61
2021/07/09 09:46:00;;;;;;;0.30;0.30;;;;;;;29.62;28.74;98025.69;5109711;28;20054;-63
2021/07/09 09:48:47;;;;;;;1.40;0.30;;;;;;;29.73;28.63;98025.00;5110301;28;20036;-62
2021/07/09 09:51:34;;;;;;;0.57;0.47;;;;;;;29.80;28.54;98014.63;5107837;28;20044;-65
2021/07/09 09:54:11;;;;;;;2.58;0.20;;;;;;;29.87;28.48;98025.22;5109969;28;20035;-63
2021/07/09 09:56:41;;;;;;;0.10;0.10;;;;;;;29.84;28.81;98012.69;5110005;28;20108;-62
2021/07/09 09:59:24;;;;;;;0.17;0.17;;;;;;;29.80;28.93;98013.78;5092009;28;20034;-61
2021/07/09 10:01:58;;;;;;;0.63;0.52;;;;;;;29.82;28.84;98011.44;5110134;28;20032;-62
2021/07/09 10:04:27;;;;;;;0.10;0.10;;;;;;;29.81;28.93;98006.94;5110111;28;20118;-63
2021/07/09 10:06:54;;;;;;;0.20;0.20;;;;;;;29.81;28.95;98006.94;5110477;28;20035;-61
2021/07/09 10:09:21;;;;;;;0.45;0.32;;;;;;;29.86;28.94;98009.47;5110075;28;20036;-61
2021/07/09 10:11:47;;;;;;;1.10;0.20;;;;;;;29.86;28.91;98009.47;5109966;28;20032;-62
2021/07/09 10:14:16;;;;;;;0.60;0.60;;;;;;;29.86;29.05;98004.63;5109718;28;20038;-62
2021/07/09 10:16:44;;;;;;;0.45;0.38;;;;;;;29.86;28.92;97998.97;5109539;28;20035;-62
2021/07/09 10:19:14;;;;;;;0.00;0.00;;;;;;;29.90;28.72;97993.34;5109238;28;20100;-62
2021/07/09 10:21:40;;;;;;;0.85;0.52;;;;;;;29.89;28.85;97988.88;5110574;28;20036;-62
2021/07/09 10:24:09;;;;;;;0.10;0.10;;;;;;;29.91;29.05;97982.84;5113249;28;20034;-62
2021/07/09 10:26:43;;;;;;;0.43;0.40;;;;;;;30.01;28.91;97985.81;5112799;28;20578;-62
2021/07/09 10:29:23;;;;;;;0.50;0.45;;;;;;;30.17;28.58;97979.13;5110451;28;20051;-62
2021/07/09 10:31:53;;;;;;;0.57;0.30;;;;;;;30.27;28.48;97972.78;5107242;28;20546;-62
2021/07/09 10:34:38;;;;;;;0.25;0.25;;;;;;;30.34;28.42;97966.34;5092963;28;20164;-61
2021/07/09 10:37:09;;;;;;;0.35;0.35;;;;;;;30.34;28.50;97960.69;5112103;28;20051;-62
2021/07/09 10:39:42;;;;;;;0.20;0.17;;;;;;;30.32;28.52;97955.41;5110602;28;20173;-63
2021/07/09 10:42:38;;;;;;;0.03;0.03;;;;;;;30.26;28.68;97947.69;5093198;28;20111;-62
2021/07/09 10:45:18;;;;;;;0.30;0.30;;;;;;;30.13;28.92;97947.13;5108804;28;20036;-63
2021/07/09 10:47:50;;;;;;;0.43;0.43;;;;;;;30.08;28.79;97948.28;5108132;28;20038;-62
2021/07/09 10:50:32;;;;;;;0.52;0.52;;;;;;;30.08;29.09;97939.78;5109656;28;20063;-64
2021/07/09 10:53:19;;;;;;;0.10;0.10;;;;;;;30.11;28.82;97941.84;5091023;28;20028;-62
2021/07/09 10:55:58;;;;;;;0.43;0.20;;;;;;;30.13;28.80;97941.47;5107461;28;20051;-62
2021/07/09 10:58:27;;;;;;;0.28;0.28;;;;;;;30.16;28.76;97943.53;5108451;28;20031;-61
2021/07/09 11:01:11;;;;;;;0.60;0.60;;;;;;;30.21;28.72;97934.66;5110068;28;20032;-61
2021/07/09 11:03:42;;;;;;;0.25;0.25;;;;;;;30.27;28.69;97927.47;5110420;28;20019;-62
2021/07/09 11:06:10;;;;;;;0.15;0.15;;;;;;;30.34;28.53;97923.88;5105296;28;20035;-64
2021/07/09 11:08:38;;;;;;;0.20;0.20;;;;;;;30.33;28.67;97934.41;5111625;28;20027;-61
2021/07/09 11:11:13;;;;;;;1.75;0.57;;;;;;;30.28;28.72;97929.06;5111501;28;20034;-62
2021/07/09 11:13:42;;;;;;;0.40;0.40;;;;;;;30.27;28.88;97921.81;5109289;28;20024;-62
2021/07/09 11:16:35;;;;;;;0.25;0.25;;;;;;;30.32;28.76;97929.94;5092539;28;20141;-61
2021/07/09 11:19:03;;;;;;;0.15;0.13;;;;;;;30.38;28.65;97934.03;5104856;28;20039;-61
2021/07/09 11:21:29;;;;;;;0.10;0.10;;;;;;;30.42;28.44;97928.47;5110498;28;20028;-62
2021/07/09 11:24:05;;;;;;;0.32;0.32;;;;;;;30.39;28.60;97915.84;5110628;28;20497;-61
2021/07/09 11:26:33;;;;;;;0.30;0.25;;;;;;;30.39;28.82;97901.69;5092734;28;20065;-62
2021/07/09 11:28:59;;;;;;;0.20;0.20;;;;;;;30.27;28.88;97913.31;5090704;28;20122;-61
2021/07/09 11:31:36;;;;;;;0.00;0.00;;;;;;;30.15;29.04;97907.91;5092222;28;20039;-62
2021/07/09 11:34:07;;;;;;;0.13;0.13;;;;;;;29.99;29.38;97906.13;5108643;28;20075;-63
2021/07/09 11:37:00;;;;;;;1.13;0.57;;;;;;;29.91;29.34;97904.41;5111486;28;20474;-61
2021/07/09 11:39:31;;;;;;;0.52;0.30;;;;;;;29.81;29.24;97900.22;5110991;28;20027;-63